sensor_id;sensor_type;location;lat;lon;timestamp;P1;durP1;ratioP1;P2;durP2;ratioP2
27015;SDS011;14557;0.000;0.000;2022-09-09T00:02:17;5.95;;;2.42;;
27015;SDS011;14557;0.000;0.000;2022-09-09T00:04:53;4.88;;;1.73;;
27015;SDS011;14557;0.000;0.000;2022-09-09T00:10:00;6.32;;;2.58;;
27015;SDS011;14557;0.000;0.000;2022-09-09T00:13:06;4.53;;;2.08;;
27015;SDS011;14557;0.000;0.000;2022-09-09T00:15:32;5.53;;;2.10;;
27015;SDS011;14557;0.000;0.000;2022-09-09T00:18:17;5.75;;;1.92;;
27015;SDS011;14557;0.000;0.000;2022-09-09T00:21:15;5.95;;;2.40;;
27015;SDS011;14557;0.000;0.000;2022-09-09T00:24:00;4.95;;;2.03;;
27015;SDS011;14557;0.000;0.000;2022-09-09T00:26:45;4.85;;;2.25;;
27015;SDS011;14557;0.000;0.000;2022-09-09T00:32:12;5.78;;;2.55;;
27015;SDS011;14557;0.000;0.000;2022-09-09T00:34:48;5.13;;;1.90;;
27015;SDS011;14557;0.000;0.000;2022-09-09T00:37:20;4.38;;;2.25;;
27015;SDS011;14557;0.000;0.000;2022-09-09T00:39:50;4.43;;;2.03;;
27015;SDS011;14557;0.000;0.000;2022-09-09T00:42:23;5.45;;;2.22;;
27015;SDS011;14557;0.000;0.000;2022-09-09T00:45:02;4.40;;;1.90;;
27015;SDS011;14557;0.000;0.000;2022-09-09T00:47:44;4.68;;;1.65;;
27015;SDS011;14557;0.000;0.000;2022-09-09T00:58:40;5.47;;;2.63;;
27015;SDS011;14557;0.000;0.000;2022-09-09T01:01:11;3.75;;;1.70;;
27015;SDS011;14557;0.000;0.000;2022-09-09T01:11:32;3.65;;;1.70;;
27015;SDS011;14557;0.000;0.000;2022-09-09T01:16:56;4.32;;;1.80;;
27015;SDS011;14557;0.000;0.000;2022-09-09T01:20:10;4.15;;;1.95;;
27015;SDS011;14557;0.000;0.000;2022-09-09T01:22:36;3.45;;;1.48;;
27015;SDS011;14557;0.000;0.000;2022-09-09T01:28:16;3.72;;;1.50;;
27015;SDS011;14557;0.000;0.000;2022-09-09T01:30:44;4.57;;;1.92;;
27015;SDS011;14557;0.000;0.000;2022-09-09T01:33:14;4.60;;;1.70;;
27015;SDS011;14557;0.000;0.000;2022-09-09T01:35:55;2.25;;;1.40;;
27015;SDS011;14557;0.000;0.000;2022-09-09T01:38:27;2.13;;;1.10;;
27015;SDS011;14557;0.000;0.000;2022-09-09T01:40:54;4.93;;;1.88;;
27015;SDS011;14557;0.000;0.000;2022-09-09T01:43:20;3.08;;;1.40;;
27015;SDS011;14557;0.000;0.000;2022-09-09T01:45:47;2.53;;;1.45;;
27015;SDS011;14557;0.000;0.000;2022-09-09T01:48:16;4.18;;;1.30;;
27015;SDS011;14557;0.000;0.000;2022-09-09T01:53:09;5.65;;;2.00;;
27015;SDS011;14557;0.000;0.000;2022-09-09T01:55:37;3.90;;;1.80;;
27015;SDS011;14557;0.000;0.000;2022-09-09T02:03:41;4.28;;;1.77;;
27015;SDS011;14557;0.000;0.000;2022-09-09T02:06:25;3.88;;;1.50;;
27015;SDS011;14557;0.000;0.000;2022-09-09T02:08:56;4.13;;;1.50;;
27015;SDS011;14557;0.000;0.000;2022-09-09T02:11:25;4.32;;;1.60;;
27015;SDS011;14557;0.000;0.000;2022-09-09T02:13:54;4.97;;;1.85;;
27015;SDS011;14557;0.000;0.000;2022-09-09T02:16:34;4.60;;;1.90;;
27015;SDS011;14557;0.000;0.000;2022-09-09T02:19:17;3.38;;;1.60;;
27015;SDS011;14557;0.000;0.000;2022-09-09T02:21:50;3.10;;;1.38;;
27015;SDS011;14557;0.000;0.000;2022-09-09T02:24:19;3.83;;;1.55;;
27015;SDS011;14557;0.000;0.000;2022-09-09T02:26:46;4.53;;;1.57;;
27015;SDS011;14557;0.000;0.000;2022-09-09T02:29:22;3.95;;;1.33;;
27015;SDS011;14557;0.000;0.000;2022-09-09T02:31:57;4.15;;;1.52;;
27015;SDS011;14557;0.000;0.000;2022-09-09T02:34:28;4.43;;;1.60;;
27015;SDS011;14557;0.000;0.000;2022-09-09T02:36:56;4.28;;;1.67;;
27015;SDS011;14557;0.000;0.000;2022-09-09T02:39:24;3.38;;;1.38;;
27015;SDS011;14557;0.000;0.000;2022-09-09T02:41:50;3.97;;;1.48;;
27015;SDS011;14557;0.000;0.000;2022-09-09T02:44:17;5.25;;;1.60;;
27015;SDS011;14557;0.000;0.000;2022-09-09T02:51:53;4.10;;;1.73;;
27015;SDS011;14557;0.000;0.000;2022-09-09T02:54:34;4.60;;;1.40;;
27015;SDS011;14557;0.000;0.000;2022-09-09T02:59:35;5.95;;;1.75;;
27015;SDS011;14557;0.000;0.000;2022-09-09T03:02:02;4.05;;;1.30;;
27015;SDS011;14557;0.000;0.000;2022-09-09T03:04:28;4.05;;;1.77;;
27015;SDS011;14557;0.000;0.000;2022-09-09T03:06:54;3.45;;;1.60;;
27015;SDS011;14557;0.000;0.000;2022-09-09T03:09:20;4.00;;;1.33;;
27015;SDS011;14557;0.000;0.000;2022-09-09T03:11:46;2.95;;;1.30;;
27015;SDS011;14557;0.000;0.000;2022-09-09T03:14:12;3.53;;;0.98;;
27015;SDS011;14557;0.000;0.000;2022-09-09T03:16:37;3.97;;;1.40;;
27015;SDS011;14557;0.000;0.000;2022-09-09T03:19:03;3.00;;;1.20;;
27015;SDS011;14557;0.000;0.000;2022-09-09T03:21:29;3.70;;;1.30;;
27015;SDS011;14557;0.000;0.000;2022-09-09T03:23:55;2.40;;;1.38;;
27015;SDS011;14557;0.000;0.000;2022-09-09T03:26:22;2.80;;;1.15;;
27015;SDS011;14557;0.000;0.000;2022-09-09T03:28:48;3.53;;;1.13;;
27015;SDS011;14557;0.000;0.000;2022-09-09T03:31:14;3.75;;;1.13;;
27015;SDS011;14557;0.000;0.000;2022-09-09T03:33:40;4.15;;;1.40;;
27015;SDS011;14557;0.000;0.000;2022-09-09T03:36:06;2.67;;;1.17;;
27015;SDS011;14557;0.000;0.000;2022-09-09T03:38:33;2.67;;;1.00;;
27015;SDS011;14557;0.000;0.000;2022-09-09T03:40:59;2.88;;;1.10;;
27015;SDS011;14557;0.000;0.000;2022-09-09T03:43:26;2.85;;;1.00;;
27015;SDS011;14557;0.000;0.000;2022-09-09T03:45:53;3.40;;;1.10;;
27015;SDS011;14557;0.000;0.000;2022-09-09T03:48:22;3.25;;;1.20;;
27015;SDS011;14557;0.000;0.000;2022-09-09T03:50:48;2.28;;;0.85;;
27015;SDS011;14557;0.000;0.000;2022-09-09T03:53:16;2.53;;;1.20;;
27015;SDS011;14557;0.000;0.000;2022-09-09T03:55:54;1.98;;;0.90;;
27015;SDS011;14557;0.000;0.000;2022-09-09T03:58:24;3.28;;;1.00;;
27015;SDS011;14557;0.000;0.000;2022-09-09T04:00:58;3.13;;;0.98;;
27015;SDS011;14557;0.000;0.000;2022-09-09T04:03:27;3.92;;;1.20;;
27015;SDS011;14557;0.000;0.000;2022-09-09T04:05:53;2.40;;;0.95;;
27015;SDS011;14557;0.000;0.000;2022-09-09T04:08:20;2.15;;;0.88;;
27015;SDS011;14557;0.000;0.000;2022-09-09T04:10:47;2.37;;;1.00;;
27015;SDS011;14557;0.000;0.000;2022-09-09T04:13:14;2.60;;;1.05;;
27015;SDS011;14557;0.000;0.000;2022-09-09T04:15:42;3.67;;;1.30;;
27015;SDS011;14557;0.000;0.000;2022-09-09T04:18:18;2.67;;;0.95;;
27015;SDS011;14557;0.000;0.000;2022-09-09T04:20:47;2.83;;;1.00;;
27015;SDS011;14557;0.000;0.000;2022-09-09T04:23:15;2.67;;;1.00;;
27015;SDS011;14557;0.000;0.000;2022-09-09T04:25:45;2.25;;;0.80;;
27015;SDS011;14557;0.000;0.000;2022-09-09T04:28:12;2.45;;;1.20;;
27015;SDS011;14557;0.000;0.000;2022-09-09T04:30:39;3.85;;;1.48;;
27015;SDS011;14557;0.000;0.000;2022-09-09T04:33:05;2.83;;;1.05;;
27015;SDS011;14557;0.000;0.000;2022-09-09T04:35:31;2.00;;;0.70;;
27015;SDS011;14557;0.000;0.000;2022-09-09T04:37:58;2.20;;;1.02;;
27015;SDS011;14557;0.000;0.000;2022-09-09T04:40:23;2.45;;;0.98;;
27015;SDS011;14557;0.000;0.000;2022-09-09T04:42:50;2.45;;;0.95;;
27015;SDS011;14557;0.000;0.000;2022-09-09T04:45:16;1.58;;;0.80;;
27015;SDS011;14557;0.000;0.000;2022-09-09T04:47:43;2.20;;;0.85;;
27015;SDS011;14557;0.000;0.000;2022-09-09T04:50:09;1.27;;;0.60;;
27015;SDS011;14557;0.000;0.000;2022-09-09T04:52:35;2.65;;;1.35;;
27015;SDS011;14557;0.000;0.000;2022-09-09T04:55:01;2.08;;;0.70;;
27015;SDS011;14557;0.000;0.000;2022-09-09T04:57:27;0.80;;;0.50;;
27015;SDS011;14557;0.000;0.000;2022-09-09T04:59:53;1.85;;;0.80;;
27015;SDS011;14557;0.000;0.000;2022-09-09T05:02:19;1.60;;;0.80;;
27015;SDS011;14557;0.000;0.000;2022-09-09T05:04:45;1.25;;;0.60;;
27015;SDS011;14557;0.000;0.000;2022-09-09T05:07:11;1.52;;;0.80;;
27015;SDS011;14557;0.000;0.000;2022-09-09T05:09:36;1.50;;;0.70;;
27015;SDS011;14557;0.000;0.000;2022-09-09T05:12:02;2.47;;;0.95;;
27015;SDS011;14557;0.000;0.000;2022-09-09T05:14:29;3.23;;;1.00;;
27015;SDS011;14557;0.000;0.000;2022-09-09T05:16:55;2.63;;;0.88;;
27015;SDS011;14557;0.000;0.000;2022-09-09T05:19:21;1.95;;;0.70;;
27015;SDS011;14557;0.000;0.000;2022-09-09T05:21:47;1.45;;;0.60;;
27015;SDS011;14557;0.000;0.000;2022-09-09T05:24:13;2.30;;;0.70;;
27015;SDS011;14557;0.000;0.000;2022-09-09T05:26:39;3.35;;;0.82;;
27015;SDS011;14557;0.000;0.000;2022-09-09T05:29:05;2.95;;;0.73;;
27015;SDS011;14557;0.000;0.000;2022-09-09T05:31:31;2.80;;;0.85;;
27015;SDS011;14557;0.000;0.000;2022-09-09T05:33:57;3.70;;;1.00;;
27015;SDS011;14557;0.000;0.000;2022-09-09T05:36:24;2.47;;;0.70;;
27015;SDS011;14557;0.000;0.000;2022-09-09T05:38:50;3.05;;;1.00;;
27015;SDS011;14557;0.000;0.000;2022-09-09T05:41:16;2.80;;;0.90;;
27015;SDS011;14557;0.000;0.000;2022-09-09T05:43:42;1.52;;;0.60;;
27015;SDS011;14557;0.000;0.000;2022-09-09T05:46:10;3.30;;;0.98;;
27015;SDS011;14557;0.000;0.000;2022-09-09T05:48:38;3.97;;;0.85;;
27015;SDS011;14557;0.000;0.000;2022-09-09T05:51:09;2.83;;;0.90;;
27015;SDS011;14557;0.000;0.000;2022-09-09T05:53:37;3.30;;;0.70;;
27015;SDS011;14557;0.000;0.000;2022-09-09T05:56:11;3.05;;;0.75;;
27015;SDS011;14557;0.000;0.000;2022-09-09T05:58:42;2.53;;;0.80;;
27015;SDS011;14557;0.000;0.000;2022-09-09T06:01:10;2.80;;;0.90;;
27015;SDS011;14557;0.000;0.000;2022-09-09T06:03:38;2.90;;;0.88;;
27015;SDS011;14557;0.000;0.000;2022-09-09T06:06:06;3.55;;;1.33;;
27015;SDS011;14557;0.000;0.000;2022-09-09T06:08:34;2.38;;;0.93;;
27015;SDS011;14557;0.000;0.000;2022-09-09T06:11:15;1.83;;;0.82;;
27015;SDS011;14557;0.000;0.000;2022-09-09T06:13:42;2.72;;;1.02;;
27015;SDS011;14557;0.000;0.000;2022-09-09T06:16:09;2.47;;;0.98;;
27015;SDS011;14557;0.000;0.000;2022-09-09T06:18:36;2.80;;;0.90;;
27015;SDS011;14557;0.000;0.000;2022-09-09T06:21:04;4.03;;;0.98;;
27015;SDS011;14557;0.000;0.000;2022-09-09T06:23:32;2.90;;;0.90;;
27015;SDS011;14557;0.000;0.000;2022-09-09T06:26:05;4.78;;;1.13;;
27015;SDS011;14557;0.000;0.000;2022-09-09T06:28:32;4.25;;;1.30;;
27015;SDS011;14557;0.000;0.000;2022-09-09T06:30:59;4.40;;;1.40;;
27015;SDS011;14557;0.000;0.000;2022-09-09T06:35:53;4.28;;;1.33;;
27015;SDS011;14557;0.000;0.000;2022-09-09T06:38:19;3.90;;;1.17;;
27015;SDS011;14557;0.000;0.000;2022-09-09T06:40:56;4.70;;;1.02;;
27015;SDS011;14557;0.000;0.000;2022-09-09T06:43:24;4.10;;;0.98;;
27015;SDS011;14557;0.000;0.000;2022-09-09T06:48:24;3.65;;;0.90;;
27015;SDS011;14557;0.000;0.000;2022-09-09T06:51:06;2.95;;;1.48;;
27015;SDS011;14557;0.000;0.000;2022-09-09T06:53:35;4.25;;;1.20;;
27015;SDS011;14557;0.000;0.000;2022-09-09T06:58:39;4.70;;;1.25;;
27015;SDS011;14557;0.000;0.000;2022-09-09T07:01:09;3.97;;;1.25;;
27015;SDS011;14557;0.000;0.000;2022-09-09T07:03:39;4.10;;;1.23;;
27015;SDS011;14557;0.000;0.000;2022-09-09T07:06:07;3.15;;;1.27;;
27015;SDS011;14557;0.000;0.000;2022-09-09T07:08:38;2.90;;;1.33;;
27015;SDS011;14557;0.000;0.000;2022-09-09T07:11:05;4.68;;;1.48;;
27015;SDS011;14557;0.000;0.000;2022-09-09T07:13:32;5.28;;;1.52;;
27015;SDS011;14557;0.000;0.000;2022-09-09T07:16:09;3.15;;;1.08;;
27015;SDS011;14557;0.000;0.000;2022-09-09T07:18:36;3.70;;;1.60;;
27015;SDS011;14557;0.000;0.000;2022-09-09T07:21:02;5.32;;;1.60;;
27015;SDS011;14557;0.000;0.000;2022-09-09T07:23:29;5.40;;;1.50;;
27015;SDS011;14557;0.000;0.000;2022-09-09T07:25:56;4.85;;;1.60;;
27015;SDS011;14557;0.000;0.000;2022-09-09T07:28:23;5.20;;;1.48;;
27015;SDS011;14557;0.000;0.000;2022-09-09T07:30:59;4.75;;;1.80;;
27015;SDS011;14557;0.000;0.000;2022-09-09T07:33:30;6.05;;;1.85;;
27015;SDS011;14557;0.000;0.000;2022-09-09T07:36:05;6.05;;;1.95;;
27015;SDS011;14557;0.000;0.000;2022-09-09T07:41:06;8.18;;;1.42;;
27015;SDS011;14557;0.000;0.000;2022-09-09T07:43:41;6.05;;;1.50;;
27015;SDS011;14557;0.000;0.000;2022-09-09T07:46:08;6.05;;;1.95;;
27015;SDS011;14557;0.000;0.000;2022-09-09T07:48:35;7.57;;;1.65;;
27015;SDS011;14557;0.000;0.000;2022-09-09T07:53:32;4.57;;;1.50;;
27015;SDS011;14557;0.000;0.000;2022-09-09T07:56:08;5.95;;;1.90;;
27015;SDS011;14557;0.000;0.000;2022-09-09T07:58:36;5.68;;;1.70;;
27015;SDS011;14557;0.000;0.000;2022-09-09T08:01:11;4.63;;;1.58;;
27015;SDS011;14557;0.000;0.000;2022-09-09T08:03:38;7.15;;;2.25;;
27015;SDS011;14557;0.000;0.000;2022-09-09T08:06:05;4.95;;;1.50;;
27015;SDS011;14557;0.000;0.000;2022-09-09T08:08:33;7.68;;;2.08;;
27015;SDS011;14557;0.000;0.000;2022-09-09T08:11:02;4.90;;;1.70;;
27015;SDS011;14557;0.000;0.000;2022-09-09T08:13:38;4.30;;;1.70;;
27015;SDS011;14557;0.000;0.000;2022-09-09T08:16:09;7.07;;;1.57;;
27015;SDS011;14557;0.000;0.000;2022-09-09T08:18:38;7.55;;;1.98;;
27015;SDS011;14557;0.000;0.000;2022-09-09T08:21:08;4.32;;;1.38;;
27015;SDS011;14557;0.000;0.000;2022-09-09T08:23:39;4.60;;;1.50;;
27015;SDS011;14557;0.000;0.000;2022-09-09T08:26:10;6.10;;;2.00;;
27015;SDS011;14557;0.000;0.000;2022-09-09T08:28:38;5.00;;;1.38;;
27015;SDS011;14557;0.000;0.000;2022-09-09T08:31:15;5.20;;;1.55;;
27015;SDS011;14557;0.000;0.000;2022-09-09T08:33:42;6.65;;;1.90;;
27015;SDS011;14557;0.000;0.000;2022-09-09T08:36:12;6.95;;;1.65;;
27015;SDS011;14557;0.000;0.000;2022-09-09T08:38:40;7.03;;;1.70;;
27015;SDS011;14557;0.000;0.000;2022-09-09T08:52:16;5.80;;;1.50;;
27015;SDS011;14557;0.000;0.000;2022-09-09T08:54:47;5.53;;;1.50;;
27015;SDS011;14557;0.000;0.000;2022-09-09T08:57:20;5.70;;;1.48;;
27015;SDS011;14557;0.000;0.000;2022-09-09T08:59:52;5.85;;;1.85;;
27015;SDS011;14557;0.000;0.000;2022-09-09T09:07:41;4.57;;;1.30;;
27015;SDS011;14557;0.000;0.000;2022-09-09T09:10:16;6.10;;;2.13;;
27015;SDS011;14557;0.000;0.000;2022-09-09T09:12:58;4.90;;;1.60;;
27015;SDS011;14557;0.000;0.000;2022-09-09T09:15:28;4.88;;;1.60;;
27015;SDS011;14557;0.000;0.000;2022-09-09T09:18:03;4.78;;;1.40;;
27015;SDS011;14557;0.000;0.000;2022-09-09T09:20:34;5.15;;;1.40;;
27015;SDS011;14557;0.000;0.000;2022-09-09T09:23:21;4.10;;;1.67;;
27015;SDS011;14557;0.000;0.000;2022-09-09T09:25:49;6.82;;;1.95;;
27015;SDS011;14557;0.000;0.000;2022-09-09T09:28:25;8.00;;;1.90;;
27015;SDS011;14557;0.000;0.000;2022-09-09T09:36:07;6.65;;;1.73;;
27015;SDS011;14557;0.000;0.000;2022-09-09T09:38:34;6.70;;;1.92;;
27015;SDS011;14557;0.000;0.000;2022-09-09T09:41:01;5.75;;;1.52;;
27015;SDS011;14557;0.000;0.000;2022-09-09T09:45:53;7.28;;;1.80;;
27015;SDS011;14557;0.000;0.000;2022-09-09T09:48:20;7.68;;;1.98;;
27015;SDS011;14557;0.000;0.000;2022-09-09T09:53:21;6.47;;;2.10;;
27015;SDS011;14557;0.000;0.000;2022-09-09T09:55:54;9.18;;;2.25;;
27015;SDS011;14557;0.000;0.000;2022-09-09T10:04:02;7.07;;;1.80;;
27015;SDS011;14557;0.000;0.000;2022-09-09T10:06:43;8.05;;;1.75;;
27015;SDS011;14557;0.000;0.000;2022-09-09T10:09:28;5.18;;;2.10;;
27015;SDS011;14557;0.000;0.000;2022-09-09T10:14:33;11.13;;;2.08;;
27015;SDS011;14557;0.000;0.000;2022-09-09T10:22:27;5.68;;;1.60;;
27015;SDS011;14557;0.000;0.000;2022-09-09T10:25:03;9.73;;;2.47;;
27015;SDS011;14557;0.000;0.000;2022-09-09T10:37:22;8.07;;;2.40;;
27015;SDS011;14557;0.000;0.000;2022-09-09T10:40:32;5.13;;;1.52;;
27015;SDS011;14557;0.000;0.000;2022-09-09T10:45:48;6.05;;;1.83;;
27015;SDS011;14557;0.000;0.000;2022-09-09T10:51:40;7.10;;;1.65;;
27015;SDS011;14557;0.000;0.000;2022-09-09T10:54:30;8.35;;;2.05;;
27015;SDS011;14557;0.000;0.000;2022-09-09T10:57:12;5.72;;;1.67;;
27015;SDS011;14557;0.000;0.000;2022-09-09T10:59:48;7.35;;;1.52;;
27015;SDS011;14557;0.000;0.000;2022-09-09T11:02:24;5.47;;;1.38;;
27015;SDS011;14557;0.000;0.000;2022-09-09T11:04:54;4.82;;;1.48;;
27015;SDS011;14557;0.000;0.000;2022-09-09T11:07:28;5.88;;;2.00;;
27015;SDS011;14557;0.000;0.000;2022-09-09T11:15:49;7.60;;;1.83;;
27015;SDS011;14557;0.000;0.000;2022-09-09T11:18:19;4.47;;;1.40;;
27015;SDS011;14557;0.000;0.000;2022-09-09T11:21:09;5.28;;;1.60;;
27015;SDS011;14557;0.000;0.000;2022-09-09T11:23:40;4.97;;;1.60;;
27015;SDS011;14557;0.000;0.000;2022-09-09T11:26:15;5.22;;;1.50;;
27015;SDS011;14557;0.000;0.000;2022-09-09T11:29:02;6.63;;;1.65;;
27015;SDS011;14557;0.000;0.000;2022-09-09T11:42:39;5.80;;;1.77;;
27015;SDS011;14557;0.000;0.000;2022-09-09T11:45:09;6.72;;;1.90;;
27015;SDS011;14557;0.000;0.000;2022-09-09T11:47:41;5.18;;;1.55;;
27015;SDS011;14557;0.000;0.000;2022-09-09T11:53:03;6.53;;;1.65;;
27015;SDS011;14557;0.000;0.000;2022-09-09T11:55:30;5.35;;;1.77;;
27015;SDS011;14557;0.000;0.000;2022-09-09T11:58:02;5.20;;;1.40;;
27015;SDS011;14557;0.000;0.000;2022-09-09T12:00:36;5.57;;;1.20;;
27015;SDS011;14557;0.000;0.000;2022-09-09T12:05:57;6.18;;;1.90;;
27015;SDS011;14557;0.000;0.000;2022-09-09T12:08:28;5.65;;;1.73;;
27015;SDS011;14557;0.000;0.000;2022-09-09T12:10:55;5.20;;;1.30;;
27015;SDS011;14557;0.000;0.000;2022-09-09T12:13:23;3.20;;;1.05;;
27015;SDS011;14557;0.000;0.000;2022-09-09T12:15:54;5.75;;;1.42;;
27015;SDS011;14557;0.000;0.000;2022-09-09T12:18:39;3.35;;;1.33;;
27015;SDS011;14557;0.000;0.000;2022-09-09T12:21:18;5.10;;;1.58;;
27015;SDS011;14557;0.000;0.000;2022-09-09T12:24:07;6.93;;;1.58;;
27015;SDS011;14557;0.000;0.000;2022-09-09T12:26:43;6.75;;;2.00;;
27015;SDS011;14557;0.000;0.000;2022-09-09T12:32:08;5.18;;;1.60;;
27015;SDS011;14557;0.000;0.000;2022-09-09T12:34:40;4.78;;;1.42;;
27015;SDS011;14557;0.000;0.000;2022-09-09T12:40:00;4.82;;;1.42;;
27015;SDS011;14557;0.000;0.000;2022-09-09T12:42:29;5.30;;;1.67;;
27015;SDS011;14557;0.000;0.000;2022-09-09T12:47:38;4.88;;;1.40;;
27015;SDS011;14557;0.000;0.000;2022-09-09T12:50:29;6.78;;;1.95;;
27015;SDS011;14557;0.000;0.000;2022-09-09T12:53:21;6.85;;;1.70;;
27015;SDS011;14557;0.000;0.000;2022-09-09T12:55:49;5.75;;;2.70;;
27015;SDS011;14557;0.000;0.000;2022-09-09T12:58:17;10.43;;;8.23;;
27015;SDS011;14557;0.000;0.000;2022-09-09T13:00:52;14.23;;;12.48;;
27015;SDS011;14557;0.000;0.000;2022-09-09T13:03:21;13.27;;;11.27;;
27015;SDS011;14557;0.000;0.000;2022-09-09T13:05:48;11.43;;;10.20;;
27015;SDS011;14557;0.000;0.000;2022-09-09T13:08:14;10.82;;;9.82;;
27015;SDS011;14557;0.000;0.000;2022-09-09T13:13:29;11.32;;;9.05;;
27015;SDS011;14557;0.000;0.000;2022-09-09T13:16:15;7.15;;;3.55;;
27015;SDS011;14557;0.000;0.000;2022-09-09T13:18:45;7.10;;;2.60;;
27015;SDS011;14557;0.000;0.000;2022-09-09T13:21:11;5.30;;;2.08;;
27015;SDS011;14557;0.000;0.000;2022-09-09T13:23:38;4.13;;;1.80;;
27015;SDS011;14557;0.000;0.000;2022-09-09T13:26:05;6.72;;;2.10;;
27015;SDS011;14557;0.000;0.000;2022-09-09T13:28:32;10.75;;;4.45;;
27015;SDS011;14557;0.000;0.000;2022-09-09T13:31:00;7.78;;;2.63;;
27015;SDS011;14557;0.000;0.000;2022-09-09T13:33:34;5.70;;;1.63;;
27015;SDS011;14557;0.000;0.000;2022-09-09T13:36:07;6.18;;;1.58;;
27015;SDS011;14557;0.000;0.000;2022-09-09T13:38:36;8.32;;;2.25;;
27015;SDS011;14557;0.000;0.000;2022-09-09T13:41:34;5.70;;;1.98;;
27015;SDS011;14557;0.000;0.000;2022-09-09T13:44:01;7.75;;;2.13;;
27015;SDS011;14557;0.000;0.000;2022-09-09T13:51:43;5.90;;;1.13;;
27015;SDS011;14557;0.000;0.000;2022-09-09T13:56:38;4.03;;;1.23;;
27015;SDS011;14557;0.000;0.000;2022-09-09T13:59:06;3.00;;;1.25;;
27015;SDS011;14557;0.000;0.000;2022-09-09T14:01:36;4.35;;;1.33;;
27015;SDS011;14557;0.000;0.000;2022-09-09T14:04:02;5.00;;;1.45;;
27015;SDS011;14557;0.000;0.000;2022-09-09T14:06:31;4.88;;;1.20;;
27015;SDS011;14557;0.000;0.000;2022-09-09T14:08:57;3.90;;;1.20;;
27015;SDS011;14557;0.000;0.000;2022-09-09T14:11:23;4.72;;;1.38;;
27015;SDS011;14557;0.000;0.000;2022-09-09T14:13:48;4.13;;;1.30;;
27015;SDS011;14557;0.000;0.000;2022-09-09T14:16:15;3.58;;;1.30;;
27015;SDS011;14557;0.000;0.000;2022-09-09T14:21:08;3.30;;;1.10;;
27015;SDS011;14557;0.000;0.000;2022-09-09T14:23:34;3.25;;;1.02;;
27015;SDS011;14557;0.000;0.000;2022-09-09T14:26:00;5.70;;;1.77;;
27015;SDS011;14557;0.000;0.000;2022-09-09T14:28:26;4.43;;;1.10;;
27015;SDS011;14557;0.000;0.000;2022-09-09T14:30:53;2.58;;;1.02;;
27015;SDS011;14557;0.000;0.000;2022-09-09T14:33:19;3.58;;;1.00;;
27015;SDS011;14557;0.000;0.000;2022-09-09T14:35:45;3.35;;;1.30;;
27015;SDS011;14557;0.000;0.000;2022-09-09T14:38:11;2.95;;;1.08;;
27015;SDS011;14557;0.000;0.000;2022-09-09T14:40:37;3.60;;;1.10;;
27015;SDS011;14557;0.000;0.000;2022-09-09T14:43:03;3.55;;;1.15;;
27015;SDS011;14557;0.000;0.000;2022-09-09T14:45:30;4.80;;;1.17;;
27015;SDS011;14557;0.000;0.000;2022-09-09T14:47:56;3.53;;;1.10;;
27015;SDS011;14557;0.000;0.000;2022-09-09T14:50:22;4.05;;;1.40;;
27015;SDS011;14557;0.000;0.000;2022-09-09T14:52:48;3.45;;;1.10;;
27015;SDS011;14557;0.000;0.000;2022-09-09T14:55:15;3.17;;;1.10;;
27015;SDS011;14557;0.000;0.000;2022-09-09T14:57:41;4.63;;;1.30;;
27015;SDS011;14557;0.000;0.000;2022-09-09T15:00:09;2.65;;;1.17;;
27015;SDS011;14557;0.000;0.000;2022-09-09T15:02:36;4.95;;;1.30;;
27015;SDS011;14557;0.000;0.000;2022-09-09T15:05:02;2.90;;;1.08;;
27015;SDS011;14557;0.000;0.000;2022-09-09T15:07:28;3.60;;;1.10;;
27015;SDS011;14557;0.000;0.000;2022-09-09T15:09:54;4.10;;;1.05;;
27015;SDS011;14557;0.000;0.000;2022-09-09T15:12:20;4.35;;;1.30;;
27015;SDS011;14557;0.000;0.000;2022-09-09T15:14:46;3.83;;;1.20;;
27015;SDS011;14557;0.000;0.000;2022-09-09T15:17:13;4.22;;;1.20;;
27015;SDS011;14557;0.000;0.000;2022-09-09T15:19:39;2.58;;;0.95;;
27015;SDS011;14557;0.000;0.000;2022-09-09T15:22:05;4.13;;;0.82;;
27015;SDS011;14557;0.000;0.000;2022-09-09T15:24:31;4.27;;;0.97;;
27015;SDS011;14557;0.000;0.000;2022-09-09T15:26:58;2.50;;;0.90;;
27015;SDS011;14557;0.000;0.000;2022-09-09T15:29:24;3.72;;;1.35;;
27015;SDS011;14557;0.000;0.000;2022-09-09T15:31:50;2.63;;;0.90;;
27015;SDS011;14557;0.000;0.000;2022-09-09T15:34:16;2.80;;;0.98;;
27015;SDS011;14557;0.000;0.000;2022-09-09T15:36:42;4.18;;;0.90;;
27015;SDS011;14557;0.000;0.000;2022-09-09T15:39:11;3.45;;;1.00;;
27015;SDS011;14557;0.000;0.000;2022-09-09T15:41:42;2.53;;;0.88;;
27015;SDS011;14557;0.000;0.000;2022-09-09T15:44:14;3.90;;;1.15;;
27015;SDS011;14557;0.000;0.000;2022-09-09T15:49:28;2.13;;;0.75;;
27015;SDS011;14557;0.000;0.000;2022-09-09T15:51:56;3.33;;;1.15;;
27015;SDS011;14557;0.000;0.000;2022-09-09T15:54:28;3.85;;;1.10;;
27015;SDS011;14557;0.000;0.000;2022-09-09T15:56:58;2.17;;;0.70;;
27015;SDS011;14557;0.000;0.000;2022-09-09T15:59:26;3.13;;;0.90;;
27015;SDS011;14557;0.000;0.000;2022-09-09T16:01:53;3.22;;;0.95;;
27015;SDS011;14557;0.000;0.000;2022-09-09T16:04:20;3.22;;;1.08;;
27015;SDS011;14557;0.000;0.000;2022-09-09T16:06:51;2.10;;;0.73;;
27015;SDS011;14557;0.000;0.000;2022-09-09T16:09:22;3.72;;;1.13;;
27015;SDS011;14557;0.000;0.000;2022-09-09T16:11:48;2.83;;;0.98;;
27015;SDS011;14557;0.000;0.000;2022-09-09T16:14:14;3.97;;;0.77;;
27015;SDS011;14557;0.000;0.000;2022-09-09T16:16:40;1.70;;;0.68;;
27015;SDS011;14557;0.000;0.000;2022-09-09T16:19:07;2.50;;;0.82;;
27015;SDS011;14557;0.000;0.000;2022-09-09T16:21:37;3.13;;;1.08;;
27015;SDS011;14557;0.000;0.000;2022-09-09T16:26:44;3.17;;;0.77;;
27015;SDS011;14557;0.000;0.000;2022-09-09T16:29:15;2.80;;;0.80;;
27015;SDS011;14557;0.000;0.000;2022-09-09T16:31:42;3.28;;;0.77;;
27015;SDS011;14557;0.000;0.000;2022-09-09T16:34:09;2.70;;;0.90;;
27015;SDS011;14557;0.000;0.000;2022-09-09T16:36:36;1.52;;;0.55;;
27015;SDS011;14557;0.000;0.000;2022-09-09T16:39:07;3.33;;;0.65;;
27015;SDS011;14557;0.000;0.000;2022-09-09T16:41:35;3.00;;;0.60;;
27015;SDS011;14557;0.000;0.000;2022-09-09T16:44:03;2.97;;;0.95;;
27015;SDS011;14557;0.000;0.000;2022-09-09T16:46:32;1.20;;;0.60;;
27015;SDS011;14557;0.000;0.000;2022-09-09T16:49:00;1.50;;;0.68;;
27015;SDS011;14557;0.000;0.000;2022-09-09T16:56:24;1.98;;;0.77;;
27015;SDS011;14557;0.000;0.000;2022-09-09T16:58:52;3.22;;;0.80;;
27015;SDS011;14557;0.000;0.000;2022-09-09T17:01:26;2.10;;;0.57;;
27015;SDS011;14557;0.000;0.000;2022-09-09T17:03:53;2.60;;;0.63;;
27015;SDS011;14557;0.000;0.000;2022-09-09T17:06:20;2.70;;;0.70;;
27015;SDS011;14557;0.000;0.000;2022-09-09T17:08:46;2.40;;;0.77;;
27015;SDS011;14557;0.000;0.000;2022-09-09T17:11:14;2.65;;;0.63;;
27015;SDS011;14557;0.000;0.000;2022-09-09T17:13:43;2.92;;;1.02;;
27015;SDS011;14557;0.000;0.000;2022-09-09T17:16:10;2.35;;;0.68;;
27015;SDS011;14557;0.000;0.000;2022-09-09T17:18:36;3.92;;;1.10;;
27015;SDS011;14557;0.000;0.000;2022-09-09T17:21:13;3.50;;;0.77;;
27015;SDS011;14557;0.000;0.000;2022-09-09T17:23:40;2.25;;;0.98;;
27015;SDS011;14557;0.000;0.000;2022-09-09T17:26:07;2.30;;;0.70;;
27015;SDS011;14557;0.000;0.000;2022-09-09T17:28:39;1.10;;;0.40;;
27015;SDS011;14557;0.000;0.000;2022-09-09T17:31:06;2.85;;;0.80;;
27015;SDS011;14557;0.000;0.000;2022-09-09T17:36:06;4.43;;;0.90;;
27015;SDS011;14557;0.000;0.000;2022-09-09T17:38:32;2.63;;;0.80;;
27015;SDS011;14557;0.000;0.000;2022-09-09T17:41:02;3.08;;;0.90;;
27015;SDS011;14557;0.000;0.000;2022-09-09T17:43:35;26.90;;;17.30;;
27015;SDS011;14557;0.000;0.000;2022-09-09T17:46:09;216.73;;;133.07;;
27015;SDS011;14557;0.000;0.000;2022-09-09T17:48:40;265.58;;;123.57;;
27015;SDS011;14557;0.000;0.000;2022-09-09T17:51:07;149.52;;;91.93;;
27015;SDS011;14557;0.000;0.000;2022-09-09T17:56:04;68.90;;;37.95;;
27015;SDS011;14557;0.000;0.000;2022-09-09T17:58:31;63.83;;;35.70;;
27015;SDS011;14557;0.000;0.000;2022-09-09T18:01:19;56.63;;;35.15;;
27015;SDS011;14557;0.000;0.000;2022-09-09T18:03:47;52.88;;;32.92;;
27015;SDS011;14557;0.000;0.000;2022-09-09T18:06:15;47.17;;;29.63;;
27015;SDS011;14557;0.000;0.000;2022-09-09T18:08:50;42.85;;;27.98;;
27015;SDS011;14557;0.000;0.000;2022-09-09T18:11:17;38.65;;;20.80;;